sensor_id;sensor_type;location;lat;lon;timestamp;pressure;altitude;pressure_sealevel;temperature;humidity
64876;BME280;51369;49.862;9.908;2023-05-19T00:01:06;99001.00;;;12.27;53.31
64876;BME280;51369;49.862;9.908;2023-05-19T00:03:33;98996.66;;;12.23;53.87
64876;BME280;51369;49.862;9.908;2023-05-19T00:06:01;98995.88;;;12.19;54.04
64876;BME280;51369;49.862;9.908;2023-05-19T00:08:30;98997.78;;;12.17;53.40
64876;BME280;51369;49.862;9.908;2023-05-19T00:10:56;98998.78;;;12.15;54.27
64876;BME280;51369;49.862;9.908;2023-05-19T00:13:22;98991.69;;;12.12;53.82
64876;BME280;51369;49.862;9.908;2023-05-19T00:15:49;98989.09;;;12.09;53.40
64876;BME280;51369;49.862;9.908;2023-05-19T00:18:15;98991.06;;;12.05;54.78
64876;BME280;51369;49.862;9.908;2023-05-19T00:20:41;98984.06;;;12.00;54.48
64876;BME280;51369;49.862;9.908;2023-05-19T00:23:07;98985.16;;;11.94;53.91
64876;BME280;51369;49.862;9.908;2023-05-19T00:25:32;98977.22;;;11.90;54.93
64876;BME280;51369;49.862;9.908;2023-05-19T00:27:57;98982.81;;;11.85;54.14
64876;BME280;51369;49.862;9.908;2023-05-19T00:30:24;98977.53;;;11.82;54.56
64876;BME280;51369;49.862;9.908;2023-05-19T00:32:50;98982.16;;;11.79;54.77
64876;BME280;51369;49.862;9.908;2023-05-19T00:35:16;98976.84;;;11.76;54.36
64876;BME280;51369;49.862;9.908;2023-05-19T00:37:41;98976.94;;;11.72;54.38
64876;BME280;51369;49.862;9.908;2023-05-19T00:40:08;98974.38;;;11.69;55.16
64876;BME280;51369;49.862;9.908;2023-05-19T00:42:34;98973.53;;;11.67;54.46
64876;BME280;51369;49.862;9.908;2023-05-19T00:45:00;98976.31;;;11.66;54.39
64876;BME280;51369;49.862;9.908;2023-05-19T00:47:25;98982.72;;;11.63;55.13
64876;BME280;51369;49.862;9.908;2023-05-19T00:49:50;98975.72;;;11.58;54.85
64876;BME280;51369;49.862;9.908;2023-05-19T00:52:16;98974.00;;;11.55;54.64
64876;BME280;51369;49.862;9.908;2023-05-19T00:54:43;98975.03;;;11.51;54.90
64876;BME280;51369;49.862;9.908;2023-05-19T00:57:10;98980.56;;;11.48;55.34
64876;BME280;51369;49.862;9.908;2023-05-19T00:59:36;98973.50;;;11.44;55.45
64876;BME280;51369;49.862;9.908;2023-05-19T01:02:02;98974.50;;;11.41;55.49
64876;BME280;51369;49.862;9.908;2023-05-19T01:04:27;98975.50;;;11.39;55.45
64876;BME280;51369;49.862;9.908;2023-05-19T01:06:53;98970.19;;;11.36;55.35
64876;BME280;51369;49.862;9.908;2023-05-19T01:09:21;98967.66;;;11.31;55.91
64876;BME280;51369;49.862;9.908;2023-05-19T01:11:47;98975.84;;;11.30;55.55
64876;BME280;51369;49.862;9.908;2023-05-19T01:14:13;98972.41;;;11.25;55.80
64876;BME280;51369;49.862;9.908;2023-05-19T01:16:42;98976.16;;;11.21;55.74
64876;BME280;51369;49.862;9.908;2023-05-19T01:32:52;98978.63;;;11.02;56.47
64876;BME280;51369;49.862;9.908;2023-05-19T01:35:18;98968.84;;;10.98;56.89
64876;BME280;51369;49.862;9.908;2023-05-19T01:37:46;98978.88;;;10.94;56.57
64876;BME280;51369;49.862;9.908;2023-05-19T01:40:12;98977.19;;;10.92;56.30
64876;BME280;51369;49.862;9.908;2023-05-19T01:42:38;98984.44;;;10.90;57.03
64876;BME280;51369;49.862;9.908;2023-05-19T01:45:05;98970.16;;;10.86;56.61
64876;BME280;51369;49.862;9.908;2023-05-19T01:47:35;98978.38;;;10.83;57.33
64876;BME280;51369;49.862;9.908;2023-05-19T01:50:05;98973.06;;;10.80;56.63
64876;BME280;51369;49.862;9.908;2023-05-19T01:52:30;98964.19;;;10.76;56.17
64876;BME280;51369;49.862;9.908;2023-05-19T01:54:56;98969.69;;;10.73;55.88
64876;BME280;51369;49.862;9.908;2023-05-19T01:57:23;98959.00;;;10.70;56.58
64876;BME280;51369;49.862;9.908;2023-05-19T02:05:22;98960.28;;;10.59;56.40
64876;BME280;51369;49.862;9.908;2023-05-19T02:08:12;98959.53;;;10.55;56.55
64876;BME280;51369;49.862;9.908;2023-05-19T02:10:40;98957.75;;;10.54;57.12
64876;BME280;51369;49.862;9.908;2023-05-19T02:13:10;98954.31;;;10.49;57.81
64876;BME280;51369;49.862;9.908;2023-05-19T02:15:40;98950.78;;;10.47;57.15
64876;BME280;51369;49.862;9.908;2023-05-19T02:18:09;98952.66;;;10.45;58.37
64876;BME280;51369;49.862;9.908;2023-05-19T02:20:39;98959.97;;;10.41;57.35
64876;BME280;51369;49.862;9.908;2023-05-19T02:23:05;98957.41;;;10.38;57.37
64876;BME280;51369;49.862;9.908;2023-05-19T02:25:31;98959.28;;;10.36;58.30
64876;BME280;51369;49.862;9.908;2023-05-19T02:27:58;98954.84;;;10.34;58.46
64876;BME280;51369;49.862;9.908;2023-05-19T02:30:23;98959.38;;;10.33;58.30
64876;BME280;51369;49.862;9.908;2023-05-19T02:32:49;98959.47;;;10.30;57.76
64876;BME280;51369;49.862;9.908;2023-05-19T02:35:15;98959.53;;;10.29;57.68
64876;BME280;51369;49.862;9.908;2023-05-19T02:37:40;98960.44;;;10.28;58.65
64876;BME280;51369;49.862;9.908;2023-05-19T02:40:06;98964.09;;;10.27;57.71
64876;BME280;51369;49.862;9.908;2023-05-19T02:42:32;98959.63;;;10.26;57.95
64876;BME280;51369;49.862;9.908;2023-05-19T02:44:59;98961.44;;;10.25;58.78
64876;BME280;51369;49.862;9.908;2023-05-19T02:47:24;98956.09;;;10.24;58.90
64876;BME280;51369;49.862;9.908;2023-05-19T02:49:50;98959.75;;;10.21;58.82
64876;BME280;51369;49.862;9.908;2023-05-19T02:52:15;98959.81;;;10.20;58.75
64876;BME280;51369;49.862;9.908;2023-05-19T02:54:41;98954.44;;;10.18;58.29
64876;BME280;51369;49.862;9.908;2023-05-19T02:57:06;98941.88;;;10.17;58.89
64876;BME280;51369;49.862;9.908;2023-05-19T02:59:32;98949.97;;;10.17;58.39
64876;BME280;51369;49.862;9.908;2023-05-19T03:02:01;98951.84;;;10.15;59.32
64876;BME280;51369;49.862;9.908;2023-05-19T03:04:27;98943.69;;;10.17;59.04
64876;BME280;51369;49.862;9.908;2023-05-19T03:06:53;98947.09;;;10.23;58.89
64876;BME280;51369;49.862;9.908;2023-05-19T03:09:19;98947.00;;;10.26;58.80
64876;BME280;51369;49.862;9.908;2023-05-19T03:11:45;98946.91;;;10.29;58.64
64876;BME280;51369;49.862;9.908;2023-05-19T03:14:10;98939.66;;;10.31;58.62
64876;BME280;51369;49.862;9.908;2023-05-19T03:16:39;98942.25;;;10.34;58.17
64876;BME280;51369;49.862;9.908;2023-05-19T03:19:07;98942.16;;;10.37;58.62
64876;BME280;51369;49.862;9.908;2023-05-19T03:21:33;98947.41;;;10.40;59.21
64876;BME280;51369;49.862;9.908;2023-05-19T03:23:59;98943.78;;;10.41;58.72
64876;BME280;51369;49.862;9.908;2023-05-19T03:26:25;98940.16;;;10.42;58.27
64876;BME280;51369;49.862;9.908;2023-05-19T03:28:50;98936.50;;;10.43;58.38
64876;BME280;51369;49.862;9.908;2023-05-19T03:31:16;98931.06;;;10.45;58.11
64876;BME280;51369;49.862;9.908;2023-05-19T03:33:41;98933.72;;;10.47;58.78
64876;BME280;51369;49.862;9.908;2023-05-19T03:36:07;98929.19;;;10.47;57.93
64876;BME280;51369;49.862;9.908;2023-05-19T03:38:36;98931.88;;;10.47;58.55
64876;BME280;51369;49.862;9.908;2023-05-19T03:41:01;98934.53;;;10.49;58.52
64876;BME280;51369;49.862;9.908;2023-05-19T03:43:27;98938.06;;;10.51;58.61
64876;BME280;51369;49.862;9.908;2023-05-19T03:45:59;98930.84;;;10.51;58.80
64876;BME280;51369;49.862;9.908;2023-05-19T03:48:54;98934.44;;;10.52;58.24
64876;BME280;51369;49.862;9.908;2023-05-19T03:51:38;98940.66;;;10.54;58.74
64876;BME280;51369;49.862;9.908;2023-05-19T03:54:24;98936.09;;;10.56;58.74
64876;BME280;51369;49.862;9.908;2023-05-19T03:56:50;98930.69;;;10.56;58.32
64876;BME280;51369;49.862;9.908;2023-05-19T03:59:16;98937.81;;;10.58;58.96
64876;BME280;51369;49.862;9.908;2023-05-19T04:01:41;98942.28;;;10.59;58.70
64876;BME280;51369;49.862;9.908;2023-05-19T04:04:06;98940.34;;;10.63;58.00
64876;BME280;51369;49.862;9.908;2023-05-19T04:06:32;98943.84;;;10.66;57.71
64876;BME280;51369;49.862;9.908;2023-05-19T04:08:58;98939.28;;;10.68;58.91
64876;BME280;51369;49.862;9.908;2023-05-19T04:11:23;98939.13;;;10.73;58.60
64876;BME280;51369;49.862;9.908;2023-05-19T04:13:50;98941.72;;;10.76;57.87
64876;BME280;51369;49.862;9.908;2023-05-19T04:16:15;98938.91;;;10.79;58.69
64876;BME280;51369;49.862;9.908;2023-05-19T04:18:41;98937.84;;;10.83;57.22
64876;BME280;51369;49.862;9.908;2023-05-19T04:21:06;98940.41;;;10.88;57.78
64876;BME280;51369;49.862;9.908;2023-05-19T04:23:32;98943.88;;;10.91;58.35
64876;BME280;51369;49.862;9.908;2023-05-19T04:25:58;98941.91;;;10.96;57.98
64876;BME280;51369;49.862;9.908;2023-05-19T04:28:25;98946.47;;;10.94;58.37
64876;BME280;51369;49.862;9.908;2023-05-19T04:30:51;98949.06;;;10.97;58.43
64876;BME280;51369;49.862;9.908;2023-05-19T04:33:16;98950.56;;;11.06;57.99
64876;BME280;51369;49.862;9.908;2023-05-19T04:35:45;98943.06;;;11.14;58.04
64876;BME280;51369;49.862;9.908;2023-05-19T04:38:11;98947.41;;;11.18;57.12
64876;BME280;51369;49.862;9.908;2023-05-19T04:40:37;98952.72;;;11.21;57.91
64876;BME280;51369;49.862;9.908;2023-05-19T04:43:04;98957.94;;;11.26;56.92
64876;BME280;51369;49.862;9.908;2023-05-19T04:45:31;98959.66;;;11.28;56.94
64876;BME280;51369;49.862;9.908;2023-05-19T04:47:59;98962.25;;;11.31;58.07
64876;BME280;51369;49.862;9.908;2023-05-19T04:50:24;98958.50;;;11.35;57.29
64876;BME280;51369;49.862;9.908;2023-05-19T04:52:51;98961.97;;;11.39;57.38
64876;BME280;51369;49.862;9.908;2023-05-19T04:55:16;98959.09;;;11.44;58.13
64876;BME280;51369;49.862;9.908;2023-05-19T04:57:43;98952.66;;;11.48;57.85
64876;BME280;51369;49.862;9.908;2023-05-19T05:00:09;98948.88;;;11.52;56.96
64876;BME280;51369;49.862;9.908;2023-05-19T05:02:48;98955.00;;;11.57;57.12
64876;BME280;51369;49.862;9.908;2023-05-19T05:05:17;98944.03;;;11.61;56.77
64876;BME280;51369;49.862;9.908;2023-05-19T05:07:43;98951.97;;;11.66;57.01
64876;BME280;51369;49.862;9.908;2023-05-19T05:10:09;98946.38;;;11.70;56.89
64876;BME280;51369;49.862;9.908;2023-05-19T05:12:35;98948.91;;;11.75;57.10
64876;BME280;51369;49.862;9.908;2023-05-19T05:15:01;98954.16;;;11.80;57.23
64876;BME280;51369;49.862;9.908;2023-05-19T05:17:26;98953.06;;;11.85;56.35
64876;BME280;51369;49.862;9.908;2023-05-19T05:19:52;98950.16;;;11.90;56.71
64876;BME280;51369;49.862;9.908;2023-05-19T05:22:19;98956.22;;;11.96;56.96
64876;BME280;51369;49.862;9.908;2023-05-19T05:24:45;98954.22;;;12.01;56.46
64876;BME280;51369;49.862;9.908;2023-05-19T05:27:10;98953.03;;;12.09;56.24
64876;BME280;51369;49.862;9.908;2023-05-19T05:29:36;98950.16;;;12.13;56.57
64876;BME280;51369;49.862;9.908;2023-05-19T05:32:04;98948.94;;;12.20;56.81
64876;BME280;51369;49.862;9.908;2023-05-19T05:34:29;98953.09;;;12.29;56.75
64876;BME280;51369;49.862;9.908;2023-05-19T05:36:55;98955.50;;;12.36;56.58
64876;BME280;51369;49.862;9.908;2023-05-19T05:39:21;98952.47;;;12.44;56.50
64876;BME280;51369;49.862;9.908;2023-05-19T05:41:46;98948.56;;;12.51;55.98
64876;BME280;51369;49.862;9.908;2023-05-19T05:44:12;98943.72;;;12.59;55.97
64876;BME280;51369;49.862;9.908;2023-05-19T05:46:39;98955.97;;;12.68;55.50
64876;BME280;51369;49.862;9.908;2023-05-19T05:49:05;98953.91;;;12.75;56.33
64876;BME280;51369;49.862;9.908;2023-05-19T05:51:31;98948.16;;;12.82;55.69
64876;BME280;51369;49.862;9.908;2023-05-19T05:53:58;98949.66;;;12.89;55.18
64876;BME280;51369;49.862;9.908;2023-05-19T05:56:31;98944.84;;;12.96;55.66
64876;BME280;51369;49.862;9.908;2023-05-19T05:58:58;98938.22;;;13.03;54.81
64876;BME280;51369;49.862;9.908;2023-05-19T06:01:24;98938.84;;;13.10;55.39
64876;BME280;51369;49.862;9.908;2023-05-19T06:03:52;98945.81;;;13.15;54.92
64876;BME280;51369;49.862;9.908;2023-05-19T06:06:20;98934.72;;;13.21;55.14
64876;BME280;51369;49.862;9.908;2023-05-19T06:08:45;98937.09;;;13.29;55.04
64876;BME280;51369;49.862;9.908;2023-05-19T06:11:11;98937.72;;;13.35;54.00
64876;BME280;51369;49.862;9.908;2023-05-19T06:13:38;98932.88;;;13.42;54.63
64876;BME280;51369;49.862;9.908;2023-05-19T06:16:07;98932.59;;;13.48;54.86
64876;BME280;51369;49.862;9.908;2023-05-19T06:18:43;98930.44;;;13.56;54.10
64876;BME280;51369;49.862;9.908;2023-05-19T06:21:08;98930.16;;;13.62;55.05
64876;BME280;51369;49.862;9.908;2023-05-19T06:23:39;98928.97;;;13.68;53.91
64876;BME280;51369;49.862;9.908;2023-05-19T06:26:07;98926.94;;;13.73;53.97
64876;BME280;51369;49.862;9.908;2023-05-19T06:28:32;98929.28;;;13.81;54.28
64876;BME280;51369;49.862;9.908;2023-05-19T06:30:58;98923.66;;;13.85;53.31
64876;BME280;51369;49.862;9.908;2023-05-19T06:33:47;98924.06;;;13.95;53.73
64876;BME280;51369;49.862;9.908;2023-05-19T06:36:13;98928.16;;;14.04;53.85
64876;BME280;51369;49.862;9.908;2023-05-19T06:38:40;98930.44;;;14.13;54.28
64876;BME280;51369;49.862;9.908;2023-05-19T06:41:06;98936.97;;;14.27;54.15
64876;BME280;51369;49.862;9.908;2023-05-19T06:43:32;98931.81;;;14.40;53.65
64876;BME280;51369;49.862;9.908;2023-05-19T06:46:01;98939.25;;;14.55;53.28
64876;BME280;51369;49.862;9.908;2023-05-19T06:48:29;98938.63;;;14.68;52.30
64876;BME280;51369;49.862;9.908;2023-05-19T06:50:55;98939.13;;;14.76;52.59
64876;BME280;51369;49.862;9.908;2023-05-19T06:53:20;98936.97;;;14.82;52.21
64876;BME280;51369;49.862;9.908;2023-05-19T06:55:47;98935.06;;;14.84;52.11
64876;BME280;51369;49.862;9.908;2023-05-19T06:58:18;98936.56;;;14.90;52.46
64876;BME280;51369;49.862;9.908;2023-05-19T07:00:43;98936.25;;;14.96;52.17
64876;BME280;51369;49.862;9.908;2023-05-19T07:03:11;98926.75;;;15.05;51.51
64876;BME280;51369;49.862;9.908;2023-05-19T07:05:37;98932.66;;;15.13;51.89
64876;BME280;51369;49.862;9.908;2023-05-19T07:08:03;98933.06;;;15.22;51.81
64876;BME280;51369;49.862;9.908;2023-05-19T07:10:29;98934.59;;;15.28;52.36
64876;BME280;51369;49.862;9.908;2023-05-19T07:12:55;98934.25;;;15.34;51.96
64876;BME280;51369;49.862;9.908;2023-05-19T07:15:23;98933.78;;;15.43;51.95
64876;BME280;51369;49.862;9.908;2023-05-19T07:17:49;98930.63;;;15.51;52.43
64876;BME280;51369;49.862;9.908;2023-05-19T07:20:14;98929.19;;;15.61;52.51
64876;BME280;51369;49.862;9.908;2023-05-19T07:22:39;98930.53;;;15.70;52.32
64876;BME280;51369;49.862;9.908;2023-05-19T07:25:06;98925.44;;;15.79;51.69
64876;BME280;51369;49.862;9.908;2023-05-19T07:27:32;98933.13;;;15.88;51.08
64876;BME280;51369;49.862;9.908;2023-05-19T07:29:57;98935.31;;;15.98;51.42
64876;BME280;51369;49.862;9.908;2023-05-19T07:32:23;98938.50;;;16.06;50.65
64876;BME280;51369;49.862;9.908;2023-05-19T07:34:48;98931.84;;;16.11;50.57
64876;BME280;51369;49.862;9.908;2023-05-19T07:37:14;98924.38;;;16.15;50.79
64876;BME280;51369;49.862;9.908;2023-05-19T07:39:40;98930.44;;;16.20;50.55
64876;BME280;51369;49.862;9.908;2023-05-19T07:42:05;98922.00;;;16.24;50.95
64876;BME280;51369;49.862;9.908;2023-05-19T07:44:31;98917.16;;;16.30;50.23
64876;BME280;51369;49.862;9.908;2023-05-19T07:46:57;98917.97;;;16.32;50.45
64876;BME280;51369;49.862;9.908;2023-05-19T07:49:23;98913.91;;;16.39;49.92
64876;BME280;51369;49.862;9.908;2023-05-19T07:51:48;98919.19;;;16.42;49.27
64876;BME280;51369;49.862;9.908;2023-05-19T07:54:14;98906.34;;;16.44;50.85
64876;BME280;51369;49.862;9.908;2023-05-19T07:56:39;98905.03;;;16.51;50.83
64876;BME280;51369;49.862;9.908;2023-05-19T07:59:05;98901.94;;;16.57;50.56
64876;BME280;51369;49.862;9.908;2023-05-19T08:01:32;98908.00;;;16.62;50.15
64876;BME280;51369;49.862;9.908;2023-05-19T08:03:58;98911.47;;;16.66;50.09
64876;BME280;51369;49.862;9.908;2023-05-19T08:06:23;98905.81;;;16.69;49.74
64876;BME280;51369;49.862;9.908;2023-05-19T08:08:50;98913.91;;;16.70;49.34
64876;BME280;51369;49.862;9.908;2023-05-19T08:11:16;98911.19;;;16.70;49.15
64876;BME280;51369;49.862;9.908;2023-05-19T08:13:42;98905.66;;;16.72;49.36
64876;BME280;51369;49.862;9.908;2023-05-19T08:16:07;98908.09;;;16.76;49.82
64876;BME280;51369;49.862;9.908;2023-05-19T08:18:33;98898.78;;;16.80;49.68
64876;BME280;51369;49.862;9.908;2023-05-19T08:20:58;98898.50;;;16.85;49.33
64876;BME280;51369;49.862;9.908;2023-05-19T08:23:23;98890.91;;;16.90;48.84
64876;BME280;51369;49.862;9.908;2023-05-19T08:25:49;98890.63;;;16.95;49.26
64876;BME280;51369;49.862;9.908;2023-05-19T08:28:14;98891.25;;;17.00;49.42
64876;BME280;51369;49.862;9.908;2023-05-19T08:30:40;98885.41;;;17.06;48.84
64876;BME280;51369;49.862;9.908;2023-05-19T08:33:06;98883.78;;;17.17;49.66
64876;BME280;51369;49.862;9.908;2023-05-19T08:35:32;98879.41;;;17.29;49.37
64876;BME280;51369;49.862;9.908;2023-05-19T08:37:58;98878.72;;;17.40;48.73
64876;BME280;51369;49.862;9.908;2023-05-19T08:40:24;98882.63;;;17.50;49.12
64876;BME280;51369;49.862;9.908;2023-05-19T08:42:52;98872.19;;;17.56;48.40
64876;BME280;51369;49.862;9.908;2023-05-19T08:45:18;98877.56;;;17.58;48.56
64876;BME280;51369;49.862;9.908;2023-05-19T08:47:46;98871.13;;;17.59;48.05
64876;BME280;51369;49.862;9.908;2023-05-19T08:50:16;98872.69;;;17.63;47.75
64876;BME280;51369;49.862;9.908;2023-05-19T08:53:06;98868.63;;;17.70;48.39
64876;BME280;51369;49.862;9.908;2023-05-19T08:55:43;98858.97;;;17.79;48.41
64876;BME280;51369;49.862;9.908;2023-05-19T08:58:11;98869.31;;;17.88;48.30
64876;BME280;51369;49.862;9.908;2023-05-19T09:00:37;98854.28;;;17.95;47.44
64876;BME280;51369;49.862;9.908;2023-05-19T09:03:03;98869.38;;;18.01;48.00
64876;BME280;51369;49.862;9.908;2023-05-19T09:05:29;98858.16;;;18.05;47.50
64876;BME280;51369;49.862;9.908;2023-05-19T09:07:54;98859.72;;;18.09;47.29
64876;BME280;51369;49.862;9.908;2023-05-19T09:10:20;98864.88;;;18.14;47.53
64876;BME280;51369;49.862;9.908;2023-05-19T09:12:46;98863.59;;;18.19;48.04
64876;BME280;51369;49.862;9.908;2023-05-19T09:15:15;98860.44;;;18.26;47.54
64876;BME280;51369;49.862;9.908;2023-05-19T09:17:41;98856.63;;;18.28;46.60
64876;BME280;51369;49.862;9.908;2023-05-19T09:20:09;98859.47;;;18.27;46.87
64876;BME280;51369;49.862;9.908;2023-05-19T09:22:43;98862.22;;;18.27;47.73
64876;BME280;51369;49.862;9.908;2023-05-19T09:25:24;98854.78;;;18.29;47.68
64876;BME280;51369;49.862;9.908;2023-05-19T09:27:49;98854.28;;;18.36;47.14
64876;BME280;51369;49.862;9.908;2023-05-19T09:30:16;98855.06;;;18.38;47.14
64876;BME280;51369;49.862;9.908;2023-05-19T09:32:42;98846.75;;;18.40;46.11
64876;BME280;51369;49.862;9.908;2023-05-19T09:35:08;98844.56;;;18.45;46.99
64876;BME280;51369;49.862;9.908;2023-05-19T09:37:33;98842.81;;;18.44;45.87
64876;BME280;51369;49.862;9.908;2023-05-19T09:39:59;98847.31;;;18.45;46.78
64876;BME280;51369;49.862;9.908;2023-05-19T09:42:27;98840.88;;;18.46;46.74
64876;BME280;51369;49.862;9.908;2023-05-19T09:45:03;98850.81;;;18.47;47.20
64876;BME280;51369;49.862;9.908;2023-05-19T09:47:39;98850.72;;;18.48;46.88
64876;BME280;51369;49.862;9.908;2023-05-19T09:52:41;98846.22;;;18.62;47.02
64876;BME280;51369;49.862;9.908;2023-05-19T09:55:11;98849.28;;;18.70;46.40
64876;BME280;51369;49.862;9.908;2023-05-19T09:57:38;98851.50;;;18.77;46.83
64876;BME280;51369;49.862;9.908;2023-05-19T10:00:08;98845.63;;;18.83;45.71
64876;BME280;51369;49.862;9.908;2023-05-19T10:02:45;98841.91;;;18.84;46.12
64876;BME280;51369;49.862;9.908;2023-05-19T10:05:18;98842.88;;;18.83;45.93
64876;BME280;51369;49.862;9.908;2023-05-19T10:07:45;98836.22;;;18.88;46.82
64876;BME280;51369;49.862;9.908;2023-05-19T10:10:13;98828.66;;;18.91;46.44
64876;BME280;51369;49.862;9.908;2023-05-19T10:12:39;98833.41;;;19.02;47.20
64876;BME280;51369;49.862;9.908;2023-05-19T10:15:07;98829.88;;;19.12;46.81
64876;BME280;51369;49.862;9.908;2023-05-19T10:17:34;98830.53;;;19.16;46.10
64876;BME280;51369;49.862;9.908;2023-05-19T10:20:01;98823.97;;;19.18;46.43
64876;BME280;51369;49.862;9.908;2023-05-19T10:22:27;98829.22;;;19.22;46.45
64876;BME280;51369;49.862;9.908;2023-05-19T10:24:53;98830.66;;;19.27;46.05
64876;BME280;51369;49.862;9.908;2023-05-19T10:27:21;98827.81;;;19.29;45.71
64876;BME280;51369;49.862;9.908;2023-05-19T10:29:48;98824.84;;;19.32;46.36
64876;BME280;51369;49.862;9.908;2023-05-19T10:32:19;98833.94;;;19.32;46.04
64876;BME280;51369;49.862;9.908;2023-05-19T10:34:56;98823.00;;;19.32;46.22
64876;BME280;51369;49.862;9.908;2023-05-19T10:39:56;98829.47;;;19.44;46.59
64876;BME280;51369;49.862;9.908;2023-05-19T10:42:34;98827.72;;;19.43;46.80
64876;BME280;51369;49.862;9.908;2023-05-19T10:45:08;98815.44;;;19.48;46.68
64876;BME280;51369;49.862;9.908;2023-05-19T10:47:36;98816.19;;;19.50;45.97
64876;BME280;51369;49.862;9.908;2023-05-19T10:50:03;98815.31;;;19.50;46.01
64876;BME280;51369;49.862;9.908;2023-05-19T10:52:35;98810.19;;;19.45;46.67
64876;BME280;51369;49.862;9.908;2023-05-19T10:55:01;98817.84;;;19.40;46.15
64876;BME280;51369;49.862;9.908;2023-05-19T10:57:27;98804.69;;;19.33;46.77
64876;BME280;51369;49.862;9.908;2023-05-19T10:59:57;98816.09;;;19.27;46.74
64876;BME280;51369;49.862;9.908;2023-05-19T11:02:42;98813.25;;;19.15;47.13
64876;BME280;51369;49.862;9.908;2023-05-19T11:05:12;98813.34;;;19.14;47.16
64876;BME280;51369;49.862;9.908;2023-05-19T11:07:43;98807.75;;;19.15;47.65
64876;BME280;51369;49.862;9.908;2023-05-19T11:10:09;98805.56;;;19.21;47.15
64876;BME280;51369;49.862;9.908;2023-05-19T11:12:41;98805.34;;;19.24;46.69
64876;BME280;51369;49.862;9.908;2023-05-19T11:15:12;98801.53;;;19.26;47.63
64876;BME280;51369;49.862;9.908;2023-05-19T11:17:39;98800.22;;;19.32;46.34
64876;BME280;51369;49.862;9.908;2023-05-19T11:20:07;98796.94;;;19.39;47.73
64876;BME280;51369;49.862;9.908;2023-05-19T11:22:35;98797.91;;;19.51;47.63
64876;BME280;51369;49.862;9.908;2023-05-19T11:25:01;98796.84;;;19.54;46.46
64876;BME280;51369;49.862;9.908;2023-05-19T11:27:28;98777.56;;;19.55;46.83
64876;BME280;51369;49.862;9.908;2023-05-19T11:30:07;98787.63;;;19.55;46.89
64876;BME280;51369;49.862;9.908;2023-05-19T11:32:35;98783.91;;;19.56;46.73
64876;BME280;51369;49.862;9.908;2023-05-19T11:35:06;98785.66;;;19.57;46.05
64876;BME280;51369;49.862;9.908;2023-05-19T11:37:33;98788.06;;;19.61;46.00
64876;BME280;51369;49.862;9.908;2023-05-19T11:40:05;98778.84;;;19.62;46.38
64876;BME280;51369;49.862;9.908;2023-05-19T11:42:35;98778.75;;;19.64;46.17
64876;BME280;51369;49.862;9.908;2023-05-19T11:45:01;98776.53;;;19.69;46.28
64876;BME280;51369;49.862;9.908;2023-05-19T11:47:27;98778.72;;;19.76;46.71
64876;BME280;51369;49.862;9.908;2023-05-19T11:49:54;98778.16;;;19.84;46.11
64876;BME280;51369;49.862;9.908;2023-05-19T11:52:24;98772.34;;;19.89;44.94
64876;BME280;51369;49.862;9.908;2023-05-19T11:54:51;98771.56;;;19.87;44.92
64876;BME280;51369;49.862;9.908;2023-05-19T11:57:17;98771.34;;;19.90;45.69
64876;BME280;51369;49.862;9.908;2023-05-19T11:59:42;98774.09;;;19.90;45.33
64876;BME280;51369;49.862;9.908;2023-05-19T12:02:16;98766.41;;;19.95;45.19
64876;BME280;51369;49.862;9.908;2023-05-19T12:04:42;98769.78;;;19.98;44.99
64876;BME280;51369;49.862;9.908;2023-05-19T12:07:09;98771.53;;;19.99;44.70
64876;BME280;51369;49.862;9.908;2023-05-19T12:09:36;98762.75;;;20.07;44.21
64876;BME280;51369;49.862;9.908;2023-05-19T12:12:02;98765.38;;;20.08;44.88
64876;BME280;51369;49.862;9.908;2023-05-19T12:14:28;98762.50;;;20.10;44.18
64876;BME280;51369;49.862;9.908;2023-05-19T12:16:54;98764.03;;;20.14;44.16
64876;BME280;51369;49.862;9.908;2023-05-19T12:19:22;98747.22;;;20.19;44.53
64876;BME280;51369;49.862;9.908;2023-05-19T12:21:48;98752.00;;;20.28;45.26
64876;BME280;51369;49.862;9.908;2023-05-19T12:24:13;98756.72;;;20.38;44.49
64876;BME280;51369;49.862;9.908;2023-05-19T12:26:39;98748.78;;;20.46;45.28
64876;BME280;51369;49.862;9.908;2023-05-19T12:29:05;98753.16;;;20.49;43.49
64876;BME280;51369;49.862;9.908;2023-05-19T12:31:32;98749.41;;;20.50;42.89
64876;BME280;51369;49.862;9.908;2023-05-19T12:33:58;98741.69;;;20.55;43.46
64876;BME280;51369;49.862;9.908;2023-05-19T12:36:24;98741.34;;;20.60;43.14
64876;BME280;51369;49.862;9.908;2023-05-19T12:38:54;98737.47;;;20.62;42.75
64876;BME280;51369;49.862;9.908;2023-05-19T12:41:19;98739.38;;;20.73;43.32
64876;BME280;51369;49.862;9.908;2023-05-19T12:43:45;98738.38;;;20.85;43.07
64876;BME280;51369;49.862;9.908;2023-05-19T12:46:11;98734.69;;;20.97;43.77
64876;BME280;51369;49.862;9.908;2023-05-19T12:48:41;98730.19;;;21.07;42.54
64876;BME280;51369;49.862;9.908;2023-05-19T12:51:08;98723.34;;;21.13;42.28
64876;BME280;51369;49.862;9.908;2023-05-19T12:53:34;98729.09;;;21.21;42.04
64876;BME280;51369;49.862;9.908;2023-05-19T12:55:59;98736.50;;;21.32;42.15
64876;BME280;51369;49.862;9.908;2023-05-19T12:58:24;98740.75;;;21.47;42.16
64876;BME280;51369;49.862;9.908;2023-05-19T13:00:57;98732.13;;;21.63;41.95
64876;BME280;51369;49.862;9.908;2023-05-19T13:03:23;98720.88;;;21.77;40.98
64876;BME280;51369;49.862;9.908;2023-05-19T13:05:49;98722.13;;;21.84;42.29
64876;BME280;51369;49.862;9.908;2023-05-19T13:08:17;98720.09;;;21.97;41.81
64876;BME280;51369;49.862;9.908;2023-05-19T13:10:45;98718.22;;;22.09;42.18
64876;BME280;51369;49.862;9.908;2023-05-19T13:13:11;98723.94;;;22.17;41.89
64876;BME280;51369;49.862;9.908;2023-05-19T13:15:39;98718.19;;;22.20;40.64
64876;BME280;51369;49.862;9.908;2023-05-19T13:18:06;98727.19;;;22.22;42.42
64876;BME280;51369;49.862;9.908;2023-05-19T13:20:36;98706.56;;;22.17;40.70
64876;BME280;51369;49.862;9.908;2023-05-19T13:23:02;98706.09;;;22.12;40.35
64876;BME280;51369;49.862;9.908;2023-05-19T13:25:27;98709.22;;;22.07;41.52